createdAt,value
2017-07-01T00:00:09.656Z,945.74
2017-07-01T00:01:09.669Z,945.77
2017-07-01T00:02:09.666Z,945.79
2017-07-01T00:03:09.639Z,945.8
2017-07-01T00:04:09.633Z,945.75
2017-07-01T00:05:09.628Z,945.79
2017-07-01T00:06:09.623Z,945.75
2017-07-01T00:07:09.633Z,945.78
2017-07-01T00:08:09.687Z,945.76
2017-07-01T00:09:09.605Z,945.8
2017-07-01T00:10:09.608Z,945.79
2017-07-01T00:11:09.594Z,945.82
2017-07-01T00:12:09.590Z,945.8
2017-07-01T00:13:09.585Z,945.82
2017-07-01T00:14:09.578Z,945.82
2017-07-01T00:15:09.583Z,945.84
2017-07-01T00:16:09.843Z,945.83
2017-07-01T00:17:09.563Z,945.87
2017-07-01T00:18:09.558Z,945.89
2017-07-01T00:19:09.699Z,945.89
2017-07-01T00:20:09.545Z,945.86
2017-07-01T00:21:09.541Z,945.89
2017-07-01T00:22:09.625Z,945.83
2017-07-01T00:23:09.529Z,945.9
2017-07-01T00:24:09.524Z,945.86
2017-07-01T00:25:09.656Z,945.81
2017-07-01T00:26:09.511Z,945.82
2017-07-01T00:27:09.520Z,945.82
2017-07-01T00:28:09.521Z,945.83
2017-07-01T00:29:09.495Z,945.8
2017-07-01T00:30:09.490Z,945.81
2017-07-01T00:31:09.484Z,945.81
2017-07-01T00:32:09.483Z,945.8
2017-07-01T00:33:09.483Z,945.8
2017-07-01T00:34:09.467Z,945.82
2017-07-01T00:35:09.480Z,945.8
2017-07-01T00:36:09.455Z,945.77
2017-07-01T00:37:09.450Z,945.77
2017-07-01T00:38:09.444Z,945.78
2017-07-01T00:39:09.439Z,945.78
2017-07-01T00:40:09.433Z,945.76
2017-07-01T00:41:09.428Z,945.74
2017-07-01T00:42:09.437Z,945.77
2017-07-01T00:43:09.415Z,945.79
2017-07-01T00:44:09.409Z,945.81
2017-07-01T00:45:09.404Z,945.81
2017-07-01T00:46:09.399Z,945.8
2017-07-01T00:47:09.393Z,945.77
2017-07-01T00:48:09.387Z,945.76
2017-07-01T00:49:09.381Z,945.84
2017-07-01T00:50:09.383Z,945.84
2017-07-01T00:51:09.369Z,945.81
2017-07-01T00:52:09.365Z,945.8
2017-07-01T00:53:09.371Z,945.85
2017-07-01T00:54:09.354Z,945.81
2017-07-01T00:55:09.346Z,945.81
2017-07-01T00:56:09.340Z,945.79
2017-07-01T00:57:09.336Z,945.84
2017-07-01T00:58:09.333Z,945.81
2017-07-01T00:59:09.324Z,945.87
2017-07-01T01:00:09.318Z,945.78
2017-07-01T01:01:09.312Z,945.77
2017-07-01T01:02:09.308Z,945.78
2017-07-01T01:03:09.322Z,945.77
2017-07-01T01:04:09.304Z,945.79
2017-07-01T01:05:09.287Z,945.76
2017-07-01T01:06:09.280Z,945.8
2017-07-01T01:07:09.286Z,945.83
2017-07-01T01:08:09.286Z,945.82
2017-07-01T01:09:09.323Z,945.84
2017-07-01T01:10:09.260Z,945.8
2017-07-01T01:11:09.261Z,945.81
2017-07-01T01:12:09.247Z,945.8
2017-07-01T01:13:09.239Z,945.84
2017-07-01T01:14:09.233Z,945.83
2017-07-01T01:15:09.227Z,945.81
2017-07-01T01:16:09.237Z,945.81
2017-07-01T01:17:09.237Z,945.79
2017-07-01T01:18:09.211Z,945.77
2017-07-01T01:19:09.216Z,945.85
2017-07-01T01:20:09.199Z,945.82
2017-07-01T01:21:09.192Z,945.83
2017-07-01T01:22:09.188Z,945.8
2017-07-01T01:23:09.180Z,945.79
2017-07-01T01:24:09.174Z,945.81
2017-07-01T01:25:09.167Z,945.77
2017-07-01T01:26:09.162Z,945.8
2017-07-01T01:27:09.154Z,945.82
2017-07-01T01:28:09.168Z,945.83
2017-07-01T01:29:09.144Z,945.86
2017-07-01T01:30:09.138Z,945.86
2017-07-01T01:31:09.131Z,945.86
2017-07-01T01:32:09.126Z,945.86
2017-07-01T01:33:09.132Z,945.87
2017-07-01T01:34:09.113Z,945.86
2017-07-01T01:35:09.106Z,945.93
2017-07-01T01:36:09.100Z,945.92
2017-07-01T01:37:09.095Z,945.87
2017-07-01T01:38:09.087Z,945.93
2017-07-01T01:39:09.081Z,945.89
2017-07-01T01:40:09.075Z,945.86
2017-07-01T01:41:09.075Z,945.93
2017-07-01T01:42:09.065Z,945.88
2017-07-01T01:43:09.057Z,945.9
2017-07-01T01:44:09.052Z,945.84
2017-07-01T01:45:09.063Z,945.86
2017-07-01T01:46:09.038Z,945.89
2017-07-01T01:47:09.047Z,945.87
2017-07-01T01:48:09.026Z,945.87
2017-07-01T01:49:09.020Z,945.9
2017-07-01T01:50:09.013Z,945.86
2017-07-01T01:51:09.007Z,945.83
2017-07-01T01:52:09.002Z,945.79
2017-07-01T01:53:09.018Z,945.79
2017-07-01T01:54:08.988Z,945.75
2017-07-01T01:55:08.983Z,945.76
2017-07-01T01:56:09.007Z,945.77
2017-07-01T01:57:08.969Z,945.77
2017-07-01T01:58:08.963Z,945.75
2017-07-01T01:59:08.957Z,945.76
2017-07-01T02:00:08.949Z,945.7
2017-07-01T02:01:08.943Z,945.78
2017-07-01T02:02:08.945Z,945.82
2017-07-01T02:03:08.932Z,945.78
2017-07-01T02:04:08.926Z,945.83
2017-07-01T02:05:08.918Z,945.77
2017-07-01T02:06:08.927Z,945.8
2017-07-01T02:07:08.906Z,945.75
2017-07-01T02:08:08.898Z,945.79
2017-07-01T02:09:08.894Z,945.85
2017-07-01T02:10:08.888Z,945.84
2017-07-01T02:11:08.881Z,945.89
2017-07-01T02:12:08.875Z,945.87
2017-07-01T02:13:08.870Z,945.85
2017-07-01T02:14:08.863Z,945.85
2017-07-01T02:15:08.856Z,945.87
2017-07-01T02:16:08.849Z,945.91
2017-07-01T02:17:08.844Z,945.86
2017-07-01T02:18:08.857Z,945.84
2017-07-01T02:19:08.832Z,945.89
2017-07-01T02:20:08.825Z,945.83
2017-07-01T02:21:08.819Z,945.84
2017-07-01T02:22:08.813Z,945.9
2017-07-01T02:23:08.812Z,945.9
2017-07-01T02:24:08.800Z,945.9
2017-07-01T02:25:08.794Z,945.89
2017-07-01T02:26:08.788Z,945.97
2017-07-01T02:27:08.801Z,945.91
2017-07-01T02:28:08.776Z,945.9
2017-07-01T02:29:08.770Z,945.94
2017-07-01T02:30:08.764Z,945.93
2017-07-01T02:31:08.758Z,945.95
2017-07-01T02:32:08.753Z,945.97
2017-07-01T02:33:08.746Z,945.95
2017-07-01T02:34:08.740Z,945.96
2017-07-01T02:35:08.761Z,946.01
2017-07-01T02:36:08.780Z,945.98
2017-07-01T02:37:08.721Z,945.96
2017-07-01T02:38:08.714Z,945.99
2017-07-01T02:39:08.709Z,946.02
2017-07-01T02:40:08.705Z,946.04
2017-07-01T02:41:08.698Z,945.97
2017-07-01T02:42:08.690Z,945.99
2017-07-01T02:43:08.686Z,946.03
2017-07-01T02:44:08.678Z,946.04
2017-07-01T02:45:08.672Z,946.03
2017-07-01T02:46:08.664Z,946.03
2017-07-01T02:47:08.660Z,946.06
2017-07-01T02:48:08.654Z,946.07
2017-07-01T02:49:08.676Z,946.05
2017-07-01T02:50:08.643Z,946.07
2017-07-01T02:51:08.636Z,946.06
2017-07-01T02:52:08.630Z,946.02
2017-07-01T02:53:08.624Z,946.05
2017-07-01T02:54:08.617Z,946.06
2017-07-01T02:55:08.610Z,946.01
2017-07-01T02:56:08.604Z,946.01
2017-07-01T02:57:08.599Z,946.02
2017-07-01T02:58:08.592Z,946.04
2017-07-01T02:59:08.586Z,946.02
2017-07-01T03:00:08.580Z,946
2017-07-01T03:01:08.574Z,945.99
2017-07-01T03:02:08.566Z,946.07
2017-07-01T03:03:08.563Z,946.01
2017-07-01T03:04:08.555Z,946.04
2017-07-01T03:05:08.547Z,946.02
2017-07-01T03:06:08.542Z,946.03
2017-07-01T03:07:08.535Z,946.05
2017-07-01T03:08:08.547Z,946.08
2017-07-01T03:09:08.522Z,946.08
2017-07-01T03:10:08.516Z,946.08
2017-07-01T03:11:08.508Z,946.11
2017-07-01T03:12:08.503Z,946.1
2017-07-01T03:13:08.509Z,946.05
2017-07-01T03:14:08.489Z,946.06
2017-07-01T03:15:08.486Z,946.08
2017-07-01T03:16:08.477Z,946.05
2017-07-01T03:17:08.469Z,946.06
2017-07-01T03:18:08.462Z,946.03
2017-07-01T03:19:08.458Z,946.06
2017-07-01T03:20:08.451Z,946.07
2017-07-01T03:21:08.443Z,946.05
2017-07-01T03:22:08.436Z,945.97
2017-07-01T03:23:08.437Z,945.98
2017-07-01T03:24:08.447Z,945.99
2017-07-01T03:25:08.417Z,945.98
2017-07-01T03:26:08.420Z,945.97
2017-07-01T03:27:08.409Z,945.96
2017-07-01T03:28:08.399Z,945.89
2017-07-01T03:29:08.403Z,945.93
2017-07-01T03:30:08.390Z,945.91
2017-07-01T03:31:08.379Z,945.93
2017-07-01T03:32:08.371Z,945.89
2017-07-01T03:33:08.364Z,945.93
2017-07-01T03:34:08.359Z,945.93
2017-07-01T03:35:08.352Z,945.9
2017-07-01T03:36:08.343Z,945.89
2017-07-01T03:37:08.339Z,945.87
2017-07-01T03:38:08.331Z,945.9
2017-07-01T03:39:08.330Z,945.96
2017-07-01T03:40:08.330Z,945.93
2017-07-01T03:41:08.314Z,945.92
2017-07-01T03:42:08.307Z,945.85
2017-07-01T03:43:08.298Z,945.91
2017-07-01T03:44:08.292Z,945.91
2017-07-01T03:45:08.285Z,945.88
2017-07-01T03:46:08.279Z,945.91
2017-07-01T03:47:08.272Z,945.92
2017-07-01T03:48:08.283Z,945.84
2017-07-01T03:49:08.260Z,945.88
2017-07-01T03:50:08.253Z,945.8
2017-07-01T03:51:08.247Z,945.84
2017-07-01T03:52:08.241Z,945.87
2017-07-01T03:53:08.234Z,945.79
2017-07-01T03:54:08.227Z,945.84
2017-07-01T03:55:08.221Z,945.88
2017-07-01T03:56:08.223Z,945.89
2017-07-01T03:57:08.207Z,945.91
2017-07-01T03:58:08.201Z,945.98
2017-07-01T03:59:08.194Z,945.97
2017-07-01T04:00:08.188Z,945.94
2017-07-01T04:01:08.182Z,945.99
2017-07-01T04:02:08.175Z,945.97
2017-07-01T04:03:08.170Z,945.98
2017-07-01T04:04:08.163Z,946
2017-07-01T04:05:08.156Z,946
2017-07-01T04:06:08.149Z,945.92
2017-07-01T04:07:08.143Z,945.95
2017-07-01T04:08:08.137Z,946.04
2017-07-01T04:09:08.140Z,946.04
2017-07-01T04:10:08.123Z,946.06
2017-07-01T04:11:08.119Z,946.09
2017-07-01T04:12:08.134Z,946.07
2017-07-01T04:13:08.106Z,946.07
2017-07-01T04:14:08.119Z,946.05
2017-07-01T04:15:08.093Z,946.08
2017-07-01T04:16:08.086Z,946.12
2017-07-01T04:17:08.079Z,946.14
2017-07-01T04:18:08.075Z,946.16
2017-07-01T04:19:08.068Z,946.13
2017-07-01T04:20:08.062Z,946.13
2017-07-01T04:21:08.057Z,946.13
2017-07-01T04:22:08.050Z,946.16
2017-07-01T04:23:08.042Z,946.13
2017-07-01T04:24:08.035Z,946.13
2017-07-01T04:25:08.030Z,946.05
2017-07-01T04:26:08.025Z,946.21
2017-07-01T04:27:08.037Z,946.14
2017-07-01T04:28:08.013Z,946.11
2017-07-01T04:29:08.008Z,946.17
2017-07-01T04:30:08.001Z,946.1
2017-07-01T04:31:07.995Z,946.14
2017-07-01T04:32:07.989Z,946.15
2017-07-01T04:33:07.984Z,946.17
2017-07-01T04:34:07.977Z,946.16
2017-07-01T04:35:07.982Z,946.14
2017-07-01T04:36:07.965Z,946.14
2017-07-01T04:37:07.959Z,946.21
2017-07-01T04:38:07.958Z,946.17
2017-07-01T04:39:07.948Z,946.21
2017-07-01T04:40:07.943Z,946.18
2017-07-01T04:41:07.935Z,946.21
2017-07-01T04:42:07.930Z,946.23
2017-07-01T04:43:07.924Z,946.21
2017-07-01T04:44:07.921Z,946.24
2017-07-01T04:45:07.912Z,946.23
2017-07-01T04:46:07.906Z,946.23
2017-07-01T04:47:07.901Z,946.23
2017-07-01T04:48:07.894Z,946.24
2017-07-01T04:49:07.887Z,946.24
2017-07-01T04:50:07.882Z,946.25
2017-07-01T04:51:07.878Z,946.23
2017-07-01T04:52:07.871Z,946.27
2017-07-01T04:53:07.865Z,946.22
2017-07-01T04:54:07.859Z,946.24
2017-07-01T04:55:07.854Z,946.29
2017-07-01T04:56:07.849Z,946.32
2017-07-01T04:57:07.843Z,946.35
2017-07-01T04:58:07.837Z,946.35
2017-07-01T04:59:07.831Z,946.32
2017-07-01T05:00:07.824Z,946.32
2017-07-01T05:01:07.820Z,946.36
2017-07-01T05:02:07.814Z,946.37
2017-07-01T05:03:07.809Z,946.35
2017-07-01T05:04:07.804Z,946.32
2017-07-01T05:05:07.839Z,946.31
2017-07-01T05:06:07.793Z,946.32
2017-07-01T05:07:07.788Z,946.33
2017-07-01T05:08:07.783Z,946.25
2017-07-01T05:09:07.778Z,946.34
2017-07-01T05:10:07.771Z,946.31
2017-07-01T05:11:07.801Z,946.36
2017-07-01T05:12:07.762Z,946.33
2017-07-01T05:13:07.759Z,946.37
2017-07-01T05:14:07.752Z,946.34
2017-07-01T05:15:07.746Z,946.31
2017-07-01T05:16:07.744Z,946.32
2017-07-01T05:17:07.738Z,946.35
2017-07-01T05:18:07.822Z,946.39
2017-07-01T05:19:07.728Z,946.36
2017-07-01T05:20:07.724Z,946.41
2017-07-01T05:21:07.718Z,946.41
2017-07-01T05:22:07.726Z,946.42
2017-07-01T05:23:07.709Z,946.48
2017-07-01T05:24:07.810Z,946.46
2017-07-01T05:25:07.783Z,946.48
2017-07-01T05:26:07.695Z,946.48
2017-07-01T05:27:07.689Z,946.48
2017-07-01T05:28:07.685Z,946.49
2017-07-01T05:29:07.678Z,946.52
2017-07-01T05:30:07.674Z,946.51
2017-07-01T05:31:07.757Z,946.53
2017-07-01T05:32:07.706Z,946.53
2017-07-01T05:33:07.659Z,946.53
2017-07-01T05:34:07.659Z,946.54
2017-07-01T05:35:07.649Z,946.57
2017-07-01T05:36:07.644Z,946.59
2017-07-01T05:37:07.639Z,946.64
2017-07-01T05:38:07.672Z,946.66
2017-07-01T05:39:07.725Z,946.71
2017-07-01T05:40:07.625Z,946.65
2017-07-01T05:41:07.620Z,946.71
2017-07-01T05:42:07.629Z,946.67
2017-07-01T05:43:07.609Z,946.71
2017-07-01T05:44:07.604Z,946.73
2017-07-01T05:45:07.600Z,946.76
2017-07-01T05:46:07.595Z,946.77
2017-07-01T05:47:07.591Z,946.71
2017-07-01T05:48:07.586Z,946.71
2017-07-01T05:49:07.581Z,946.72
2017-07-01T05:50:07.577Z,946.72
2017-07-01T05:51:07.571Z,946.71
2017-07-01T05:52:07.566Z,946.71
2017-07-01T05:53:07.560Z,946.73
2017-07-01T05:54:07.556Z,946.75
2017-07-01T05:55:07.550Z,946.73
2017-07-01T05:56:07.552Z,946.75
2017-07-01T05:57:07.541Z,946.74
2017-07-01T05:58:07.536Z,946.84
2017-07-01T05:59:07.531Z,946.82
2017-07-01T06:00:07.525Z,946.86
2017-07-01T06:01:07.520Z,946.87
2017-07-01T06:02:07.517Z,946.9
2017-07-01T06:03:07.513Z,946.87
2017-07-01T06:04:07.507Z,946.87
2017-07-01T06:05:07.501Z,946.93
2017-07-01T06:06:07.496Z,946.91
2017-07-01T06:07:07.491Z,946.91
2017-07-01T06:08:07.487Z,946.91
2017-07-01T06:09:07.500Z,946.91
2017-07-01T06:10:07.478Z,946.92
2017-07-01T06:11:07.471Z,946.9
2017-07-01T06:12:07.466Z,946.95
2017-07-01T06:13:07.463Z,946.96
2017-07-01T06:14:07.455Z,946.87
2017-07-01T06:15:07.450Z,946.92
2017-07-01T06:16:07.445Z,946.9
2017-07-01T06:17:07.446Z,946.93
2017-07-01T06:18:07.434Z,946.92
2017-07-01T06:19:07.430Z,946.91
2017-07-01T06:20:07.425Z,946.88
2017-07-01T06:21:07.420Z,946.86
2017-07-01T06:22:07.417Z,946.97
2017-07-01T06:23:07.447Z,946.91
2017-07-01T06:24:07.406Z,946.86
2017-07-01T06:25:07.405Z,946.8
2017-07-01T06:26:07.396Z,946.89
2017-07-01T06:27:07.392Z,946.86
2017-07-01T06:28:07.387Z,946.94
2017-07-01T06:29:07.399Z,946.9
2017-07-01T06:30:07.377Z,946.92
2017-07-01T06:31:07.370Z,946.89
2017-07-01T06:32:07.367Z,946.89
2017-07-01T06:33:07.366Z,946.88
2017-07-01T06:34:07.357Z,946.95
2017-07-01T06:35:07.352Z,946.93
2017-07-01T06:36:07.347Z,946.89
2017-07-01T06:37:07.344Z,946.9
2017-07-01T06:38:07.340Z,946.91
2017-07-01T06:39:07.334Z,946.91
2017-07-01T06:40:07.330Z,946.93
2017-07-01T06:41:07.325Z,946.92
2017-07-01T06:42:07.319Z,946.98
2017-07-01T06:43:07.320Z,946.96
2017-07-01T06:44:07.313Z,946.95
2017-07-01T06:45:07.306Z,946.97
2017-07-01T06:46:07.315Z,947.02
2017-07-01T06:47:07.299Z,946.99
2017-07-01T06:48:07.294Z,946.98
2017-07-01T06:49:07.289Z,946.97
2017-07-01T06:50:07.284Z,947.02
2017-07-01T06:51:07.284Z,946.97
2017-07-01T06:52:07.277Z,946.95
2017-07-01T06:53:07.273Z,946.98
2017-07-01T06:54:07.269Z,946.96
2017-07-01T06:55:07.265Z,946.98
2017-07-01T06:56:07.259Z,946.94
2017-07-01T06:57:07.255Z,947.01
2017-07-01T06:58:07.274Z,947.03
2017-07-01T06:59:07.250Z,947.04
2017-07-01T07:00:07.241Z,947.02
2017-07-01T07:01:07.238Z,947.04
2017-07-01T07:02:07.234Z,946.95
2017-07-01T07:03:07.232Z,947.03
2017-07-01T07:04:07.226Z,947.05
2017-07-01T07:05:07.223Z,947.06
2017-07-01T07:06:07.219Z,947.05
2017-07-01T07:07:07.214Z,947.05
2017-07-01T07:08:07.211Z,947.11
2017-07-01T07:09:07.207Z,947.08
2017-07-01T07:10:07.203Z,947.05
2017-07-01T07:11:07.199Z,947.02
2017-07-01T07:12:07.196Z,947.01
2017-07-01T07:13:07.192Z,947.04
2017-07-01T07:14:07.187Z,947.04
2017-07-01T07:15:07.183Z,946.99
2017-07-01T07:16:07.184Z,947.03
2017-07-01T07:17:07.176Z,947.09
2017-07-01T07:18:07.173Z,946.99
2017-07-01T07:19:07.168Z,946.99
2017-07-01T07:20:07.166Z,947.06
2017-07-01T07:21:07.165Z,947.06
2017-07-01T07:22:07.159Z,947.04
2017-07-01T07:23:07.156Z,947.12
2017-07-01T07:24:07.154Z,947.11
2017-07-01T07:25:07.171Z,947.07
2017-07-01T07:26:07.147Z,947.12
2017-07-01T07:27:07.165Z,947.09
2017-07-01T07:28:07.142Z,947.05
2017-07-01T07:29:07.139Z,947.06
2017-07-01T07:30:07.134Z,947.07
2017-07-01T07:31:07.134Z,947.03
2017-07-01T07:32:07.132Z,947.09
2017-07-01T07:33:07.130Z,947.12
2017-07-01T07:34:07.124Z,947.05
2017-07-01T07:35:07.128Z,947.1
2017-07-01T07:36:07.120Z,947.1
2017-07-01T07:37:07.118Z,947.04
2017-07-01T07:38:07.115Z,947.11
2017-07-01T07:39:07.118Z,946.98
2017-07-01T07:40:07.109Z,947.03
2017-07-01T07:41:07.107Z,947
2017-07-01T07:42:07.106Z,947.03
2017-07-01T07:43:07.113Z,947.13
2017-07-01T07:44:07.098Z,947.13
2017-07-01T07:45:07.097Z,947.14
2017-07-01T07:46:07.095Z,947.11
2017-07-01T07:47:07.090Z,947.08
2017-07-01T07:48:07.088Z,947.08
2017-07-01T07:49:07.086Z,947.1
2017-07-01T07:50:07.083Z,947.12
2017-07-01T07:51:07.080Z,947.16
2017-07-01T07:52:07.076Z,947.18
2017-07-01T07:53:07.094Z,947.19
2017-07-01T07:54:07.074Z,947.16
2017-07-01T07:55:07.069Z,947.17
2017-07-01T07:56:07.065Z,947.14
2017-07-01T07:57:07.063Z,947.17
2017-07-01T07:58:07.059Z,947.25
2017-07-01T07:59:07.058Z,947.2
2017-07-01T08:00:07.055Z,947.22
2017-07-01T08:01:07.052Z,947.23
2017-07-01T08:02:07.048Z,947.24
2017-07-01T08:03:07.047Z,947.21
2017-07-01T08:04:07.044Z,947.2
2017-07-01T08:05:07.061Z,947.24
2017-07-01T08:06:07.038Z,947.27
2017-07-01T08:07:07.034Z,947.27
2017-07-01T08:08:07.033Z,947.23
2017-07-01T08:09:07.029Z,947.27
2017-07-01T08:10:07.026Z,947.23
2017-07-01T08:11:07.038Z,947.22
2017-07-01T08:12:07.045Z,947.26
2017-07-01T08:13:07.019Z,947.28
2017-07-01T08:14:07.018Z,947.3
2017-07-01T08:15:07.014Z,947.34
2017-07-01T08:16:07.012Z,947.29
2017-07-01T08:17:07.010Z,947.33
2017-07-01T08:18:07.006Z,947.3
2017-07-01T08:19:07.005Z,947.31
2017-07-01T08:20:07.002Z,947.34
2017-07-01T08:21:07.000Z,947.41
2017-07-01T08:22:06.997Z,947.41
2017-07-01T08:23:06.998Z,947.43
2017-07-01T08:24:07.015Z,947.39
2017-07-01T08:25:06.990Z,947.36
2017-07-01T08:26:06.990Z,947.35
2017-07-01T08:27:06.986Z,947.4
2017-07-01T08:28:06.995Z,947.34
2017-07-01T08:29:06.984Z,947.35
2017-07-01T08:30:06.979Z,947.37
2017-07-01T08:31:06.977Z,947.43
2017-07-01T08:32:06.975Z,947.41
2017-07-01T08:33:06.974Z,947.46
2017-07-01T08:34:06.975Z,947.48
2017-07-01T08:35:06.968Z,947.38
2017-07-01T08:36:06.969Z,947.4
2017-07-01T08:37:06.965Z,947.44
2017-07-01T08:38:06.963Z,947.44
2017-07-01T08:39:06.960Z,947.39
2017-07-01T08:40:06.967Z,947.4
2017-07-01T08:41:06.958Z,947.44
2017-07-01T08:42:06.956Z,947.44
2017-07-01T08:43:06.953Z,947.44
2017-07-01T08:44:06.951Z,947.45
2017-07-01T08:45:06.950Z,947.45
2017-07-01T08:46:06.947Z,947.45
2017-07-01T08:47:06.944Z,947.46
2017-07-01T08:48:06.956Z,947.5
2017-07-01T08:49:06.941Z,947.44
2017-07-01T08:50:06.939Z,947.45
2017-07-01T08:51:06.941Z,947.43
2017-07-01T08:52:06.937Z,947.45
2017-07-01T08:53:06.943Z,947.54
2017-07-01T08:54:06.973Z,947.52
2017-07-01T08:55:06.929Z,947.49
2017-07-01T08:56:06.928Z,947.59
2017-07-01T08:57:06.924Z,947.56
2017-07-01T08:58:06.923Z,947.61
2017-07-01T08:59:06.921Z,947.51
2017-07-01T09:00:06.919Z,947.51
2017-07-01T09:01:06.916Z,947.54
2017-07-01T09:02:06.915Z,947.54
2017-07-01T09:03:06.912Z,947.59
2017-07-01T09:04:06.909Z,947.58
2017-07-01T09:05:06.909Z,947.42
2017-07-01T09:06:06.906Z,947.52
2017-07-01T09:07:06.906Z,947.5
2017-07-01T09:08:06.904Z,947.66
2017-07-01T09:09:06.902Z,947.49
2017-07-01T09:10:06.900Z,947.59
2017-07-01T09:11:06.898Z,947.55
2017-07-01T09:12:06.898Z,947.64
2017-07-01T09:13:06.898Z,947.53
2017-07-01T09:14:06.910Z,947.59
2017-07-01T09:15:06.895Z,947.47
2017-07-01T09:16:06.893Z,947.51
2017-07-01T09:17:06.893Z,947.52
2017-07-01T09:18:06.892Z,947.48
2017-07-01T09:19:06.890Z,947.51
2017-07-01T09:20:06.917Z,947.46
2017-07-01T09:21:06.888Z,947.47
2017-07-01T09:22:06.889Z,947.57
2017-07-01T09:23:06.887Z,947.47
2017-07-01T09:24:06.887Z,947.46
2017-07-01T09:25:06.886Z,947.47
2017-07-01T09:26:06.885Z,947.52
2017-07-01T09:27:06.886Z,947.49
2017-07-01T09:28:06.887Z,947.54
2017-07-01T09:29:06.899Z,947.46
2017-07-01T09:30:06.885Z,947.46
2017-07-01T09:31:06.886Z,947.44
2017-07-01T09:32:06.886Z,947.44
2017-07-01T09:33:06.885Z,947.44
2017-07-01T09:34:06.886Z,947.5
2017-07-01T09:35:06.887Z,947.48
2017-07-01T09:36:06.888Z,947.53
2017-07-01T09:37:06.888Z,947.51
2017-07-01T09:38:06.887Z,947.52
2017-07-01T09:39:06.890Z,947.61
2017-07-01T09:40:06.888Z,947.62
2017-07-01T09:41:06.889Z,947.63
2017-07-01T09:42:06.888Z,947.61
2017-07-01T09:43:06.890Z,947.67
2017-07-01T09:44:06.890Z,947.68
2017-07-01T09:45:06.890Z,947.73
2017-07-01T09:46:06.904Z,947.67
2017-07-01T09:47:06.893Z,947.64
2017-07-01T09:48:06.895Z,947.61
2017-07-01T09:49:06.893Z,947.66
2017-07-01T09:50:06.893Z,947.67
2017-07-01T09:51:06.896Z,947.74
2017-07-01T09:52:06.895Z,947.67
2017-07-01T09:53:06.897Z,947.75
2017-07-01T09:54:06.896Z,947.74
2017-07-01T09:55:06.910Z,947.6
2017-07-01T09:56:06.898Z,947.64
2017-07-01T09:57:06.899Z,947.65
2017-07-01T09:58:06.898Z,947.74
2017-07-01T09:59:06.899Z,947.71
2017-07-01T10:00:06.916Z,947.65
2017-07-01T10:01:06.900Z,947.73
2017-07-01T10:02:06.900Z,947.74
2017-07-01T10:03:06.901Z,947.77
2017-07-01T10:04:06.901Z,947.7
2017-07-01T10:05:06.917Z,947.74
2017-07-01T10:06:06.902Z,947.75
2017-07-01T10:07:06.902Z,947.76
2017-07-01T10:08:06.902Z,947.67
2017-07-01T10:09:06.904Z,947.69
2017-07-01T10:10:06.903Z,947.67
2017-07-01T10:11:06.903Z,947.69
2017-07-01T10:12:06.903Z,947.8
2017-07-01T10:13:06.905Z,947.82
2017-07-01T10:14:06.939Z,947.64
2017-07-01T10:15:06.904Z,947.69
2017-07-01T10:16:06.903Z,947.7
2017-07-01T10:17:06.902Z,947.61
2017-07-01T10:18:06.902Z,947.67
2017-07-01T10:19:06.905Z,947.72
2017-07-01T10:20:06.903Z,947.7
2017-07-01T10:21:06.902Z,947.74
2017-07-01T10:22:06.905Z,947.72
2017-07-01T10:23:06.903Z,947.74
2017-07-01T10:24:06.903Z,947.75
2017-07-01T10:25:06.900Z,947.77
2017-07-01T10:26:06.900Z,947.72
2017-07-01T10:27:06.902Z,947.74
2017-07-01T10:28:06.901Z,947.69
2017-07-01T10:29:06.921Z,947.76
2017-07-01T10:30:08.953Z,947.68
2017-07-01T10:31:06.900Z,947.7
2017-07-01T10:32:06.900Z,947.74
2017-07-01T10:33:06.899Z,947.68
2017-07-01T10:34:06.901Z,947.71
2017-07-01T10:35:06.901Z,947.67
2017-07-01T10:36:06.900Z,947.81
2017-07-01T10:37:06.901Z,947.83
2017-07-01T10:38:06.900Z,947.85
2017-07-01T10:39:06.899Z,947.79
2017-07-01T10:40:06.900Z,947.79
2017-07-01T10:41:06.899Z,947.79
2017-07-01T10:42:06.901Z,947.69
2017-07-01T10:43:06.909Z,947.79
2017-07-01T10:44:06.900Z,947.79
2017-07-01T10:45:06.902Z,947.79
2017-07-01T10:46:06.901Z,947.8
2017-07-01T10:47:06.923Z,947.74
2017-07-01T10:48:06.903Z,947.75
2017-07-01T10:49:06.903Z,947.72
2017-07-01T10:50:06.905Z,947.71
2017-07-01T10:51:06.903Z,947.72
2017-07-01T10:52:06.925Z,947.7
2017-07-01T10:53:06.905Z,947.68
2017-07-01T10:54:06.904Z,947.63
2017-07-01T10:55:06.909Z,947.64
2017-07-01T10:56:06.906Z,947.67
2017-07-01T10:57:06.905Z,947.65
2017-07-01T10:58:06.906Z,947.61
2017-07-01T10:59:06.908Z,947.6
2017-07-01T11:00:06.908Z,947.69
2017-07-01T11:01:06.907Z,947.66
2017-07-01T11:02:06.922Z,947.65
2017-07-01T11:03:06.927Z,947.68
2017-07-01T11:04:06.928Z,947.67
2017-07-01T11:05:06.910Z,947.7
2017-07-01T11:06:06.910Z,947.68
2017-07-01T11:07:06.911Z,947.64
2017-07-01T11:08:06.911Z,947.66
2017-07-01T11:09:06.911Z,947.66
2017-07-01T11:10:06.911Z,947.61
2017-07-01T11:11:06.964Z,947.7
2017-07-01T11:12:06.912Z,947.65
2017-07-01T11:13:06.910Z,947.61
2017-07-01T11:14:06.911Z,947.67
2017-07-01T11:15:06.928Z,947.67
2017-07-01T11:16:06.911Z,947.66
2017-07-01T11:17:06.912Z,947.67
2017-07-01T11:18:06.911Z,947.63
2017-07-01T11:19:06.910Z,947.7
2017-07-01T11:20:06.911Z,947.7
2017-07-01T11:21:06.910Z,947.65
2017-07-01T11:22:06.913Z,947.74
2017-07-01T11:23:06.913Z,947.7
2017-07-01T11:24:06.909Z,947.76
2017-07-01T11:25:06.910Z,947.73
2017-07-01T11:26:06.910Z,947.7
2017-07-01T11:27:06.906Z,947.69
2017-07-01T11:28:06.908Z,947.67
2017-07-01T11:29:06.907Z,947.75
2017-07-01T11:30:06.921Z,947.73
2017-07-01T11:31:06.906Z,947.65
2017-07-01T11:32:06.929Z,947.74
2017-07-01T11:33:06.905Z,947.68
2017-07-01T11:34:06.911Z,947.74
2017-07-01T11:35:06.912Z,947.67
2017-07-01T11:36:06.905Z,947.7
2017-07-01T11:37:06.903Z,947.67
2017-07-01T11:38:06.903Z,947.61
2017-07-01T11:39:06.902Z,947.64
2017-07-01T11:40:06.904Z,947.6
2017-07-01T11:41:06.905Z,947.68
2017-07-01T11:42:06.902Z,947.61
2017-07-01T11:43:06.930Z,947.63
2017-07-01T11:44:06.903Z,947.57
2017-07-01T11:45:06.952Z,947.57
2017-07-01T11:46:06.902Z,947.65
2017-07-01T11:47:06.903Z,947.59
2017-07-01T11:48:06.903Z,947.65
2017-07-01T11:49:06.901Z,947.59
2017-07-01T11:50:06.903Z,947.63
2017-07-01T11:51:06.908Z,947.61
2017-07-01T11:52:06.918Z,947.62
2017-07-01T11:53:06.909Z,947.68
2017-07-01T11:54:06.901Z,947.75
2017-07-01T11:55:06.902Z,947.72
2017-07-01T11:56:06.902Z,947.77
2017-07-01T11:57:06.900Z,947.77
2017-07-01T11:58:06.899Z,947.78
2017-07-01T11:59:06.901Z,947.83
2017-07-01T12:00:06.898Z,947.82
2017-07-01T12:01:06.918Z,947.79
2017-07-01T12:02:06.897Z,947.78
2017-07-01T12:03:07.130Z,947.76
2017-07-01T12:04:06.895Z,947.76
2017-07-01T12:05:06.895Z,947.85
2017-07-01T12:06:06.896Z,947.87
2017-07-01T12:07:06.893Z,947.93
2017-07-01T12:08:06.914Z,947.96
2017-07-01T12:09:06.910Z,947.96
2017-07-01T12:10:07.121Z,948.09
2017-07-01T12:11:06.890Z,948.18
2017-07-01T12:12:06.889Z,948.21
2017-07-01T12:13:06.886Z,948.27
2017-07-01T12:14:06.885Z,948.16
2017-07-01T12:15:06.885Z,948.24
2017-07-01T12:16:06.882Z,948.13
2017-07-01T12:17:06.881Z,948.19
2017-07-01T12:18:06.878Z,948.17
2017-07-01T12:19:06.876Z,948.14
2017-07-01T12:20:06.873Z,948.1
2017-07-01T12:21:06.872Z,948.13
2017-07-01T12:22:06.870Z,948.17
2017-07-01T12:23:06.867Z,948.12
2017-07-01T12:24:06.866Z,948.14
2017-07-01T12:25:06.862Z,948.14
2017-07-01T12:26:06.859Z,948.09
2017-07-01T12:27:06.857Z,948.13
2017-07-01T12:28:06.853Z,948.12
2017-07-01T12:29:06.850Z,948.15
2017-07-01T12:30:06.848Z,948.15